createdAt,value
2023-04-21T00:00:08.724Z,100
2023-04-21T00:05:59.304Z,100
2023-04-21T00:11:51.049Z,100
2023-04-21T00:17:42.946Z,100
2023-04-21T00:23:36.950Z,100
2023-04-21T00:29:27.534Z,100
2023-04-21T00:35:18.901Z,100
2023-04-21T00:41:10.701Z,100
2023-04-21T00:47:02.869Z,100
2023-04-21T00:52:54.969Z,100
2023-04-21T00:58:45.832Z,100
2023-04-21T01:04:37.468Z,100
2023-04-21T01:10:27.921Z,100
2023-04-21T01:16:20.440Z,100
2023-04-21T01:22:13.244Z,100
2023-04-21T01:28:04.790Z,100
2023-04-21T01:33:56.407Z,100
2023-04-21T01:39:48.626Z,100
2023-04-21T01:45:39.597Z,100
2023-04-21T01:51:31.770Z,100
2023-04-21T01:57:23.088Z,100
2023-04-21T02:03:17.798Z,100
2023-04-21T02:09:08.122Z,100
2023-04-21T02:15:00.021Z,100
2023-04-21T02:20:52.329Z,100
2023-04-21T02:26:45.806Z,100
2023-04-21T02:32:39.711Z,100
2023-04-21T02:38:34.977Z,100
2023-04-21T02:44:26.667Z,100
2023-04-21T02:50:17.988Z,100
2023-04-21T02:56:10.254Z,100
2023-04-21T03:02:03.563Z,100
2023-04-21T03:07:56.047Z,100
2023-04-21T03:13:48.690Z,100
2023-04-21T03:19:40.259Z,100
2023-04-21T03:25:32.012Z,100
2023-04-21T03:31:22.876Z,100
2023-04-21T03:37:15.478Z,100
2023-04-21T03:43:09.440Z,100
2023-04-21T03:49:05.746Z,100
2023-04-21T03:54:57.799Z,100
2023-04-21T04:00:51.422Z,100
2023-04-21T04:06:42.885Z,100
2023-04-21T04:12:34.483Z,100
2023-04-21T04:18:26.152Z,100
2023-04-21T04:24:17.560Z,100
2023-04-21T04:30:09.540Z,100
2023-04-21T04:36:00.993Z,100
2023-04-21T04:41:53.699Z,100
2023-04-21T04:47:46.104Z,100
2023-04-21T04:53:37.585Z,100
2023-04-21T04:59:31.934Z,100
2023-04-21T05:05:23.861Z,100
2023-04-21T05:11:15.999Z,100
2023-04-21T05:17:07.778Z,100
2023-04-21T05:22:59.793Z,100
2023-04-21T05:28:50.104Z,100
2023-04-21T05:34:40.257Z,100
2023-04-21T05:40:29.831Z,100
2023-04-21T05:46:21.304Z,100
2023-04-21T05:52:14.074Z,100
2023-04-21T05:58:05.080Z,100
2023-04-21T06:03:56.824Z,100
2023-04-21T06:09:50.116Z,100
2023-04-21T06:15:41.672Z,100
2023-04-21T06:21:33.184Z,100
2023-04-21T06:27:25.468Z,100
2023-04-21T06:33:17.352Z,100
2023-04-21T06:39:09.016Z,100
2023-04-21T06:45:00.618Z,100
2023-04-21T06:50:52.721Z,100
2023-04-21T06:56:44.708Z,100
2023-04-21T07:02:37.372Z,100
2023-04-21T07:08:29.607Z,100
2023-04-21T07:14:22.773Z,100
2023-04-21T07:20:14.116Z,100
2023-04-21T07:26:08.437Z,100
2023-04-21T07:32:02.507Z,100
2023-04-21T07:37:55.082Z,100
2023-04-21T07:43:47.743Z,100
2023-04-21T07:49:42.267Z,100
2023-04-21T07:55:34.787Z,100
2023-04-21T08:01:25.557Z,99.7
2023-04-21T08:07:16.959Z,100
2023-04-21T08:13:08.947Z,99.6
2023-04-21T08:19:00.326Z,97.2
2023-04-21T08:24:49.468Z,98.5
2023-04-21T08:30:39.698Z,97.6
2023-04-21T08:36:32.159Z,96
2023-04-21T08:42:25.365Z,93.4
2023-04-21T08:48:17.045Z,93.6
2023-04-21T08:54:08.083Z,92.7
2023-04-21T08:59:58.375Z,92.4
2023-04-21T09:06:00.835Z,90.4
2023-04-21T09:11:56.663Z,91.1
2023-04-21T09:17:52.255Z,88.9
2023-04-21T09:23:47.911Z,88.6
2023-04-21T09:29:41.193Z,87.7
2023-04-21T09:35:34.974Z,86.5
2023-04-21T09:41:28.545Z,87.1
2023-04-21T09:47:23.829Z,86.7
2023-04-21T09:53:17.548Z,87.7
2023-04-21T09:59:11.203Z,85.5
2023-04-21T10:05:03.927Z,84.9
2023-04-21T10:10:57.807Z,82.9
2023-04-21T10:16:50.828Z,81.9
2023-04-21T10:22:43.863Z,79.8
2023-04-21T10:28:55.476Z,80.2
2023-04-21T10:35:27.305Z,79.2
2023-04-21T10:55:38.901Z,75.7
2023-04-21T11:09:16.610Z,72.1
2023-04-21T11:36:46.523Z,61.8
2023-04-21T11:50:10.440Z,59.8
2023-04-21T15:07:04.694Z,57.2
2023-04-21T15:12:56.585Z,58
2023-04-21T15:18:50.233Z,59
2023-04-21T15:24:41.482Z,58.4
2023-04-21T15:30:36.360Z,59.4
2023-04-21T15:36:40.741Z,56.7
2023-04-21T15:42:39.121Z,57.6
2023-04-21T15:48:30.825Z,55.6
2023-04-21T15:54:22.594Z,55.4
2023-04-21T16:00:16.590Z,51.8
2023-04-21T16:06:26.505Z,53.7
2023-04-21T16:12:21.312Z,53.6
2023-04-21T16:18:12.643Z,51.1
2023-04-21T16:24:09.342Z,51.2
2023-04-21T16:30:03.469Z,50.2
2023-04-21T16:36:06.535Z,51.8
2023-04-21T16:42:08.122Z,50.7
2023-04-21T16:48:05.578Z,51.1
2023-04-21T16:54:00.298Z,51.7
2023-04-21T16:59:51.487Z,52.6
2023-04-21T17:05:43.421Z,54.7
2023-04-21T17:11:36.282Z,54.6
2023-04-21T17:17:29.349Z,54.7
2023-04-21T17:23:20.212Z,56.7
2023-04-21T17:29:13.523Z,57.7
2023-04-21T17:35:03.695Z,57.9
2023-04-21T17:40:53.135Z,59.3
2023-04-21T17:46:43.758Z,60
2023-04-21T17:52:36.223Z,61.2
2023-04-21T17:58:27.659Z,61.3
2023-04-21T18:04:20.150Z,61.5
2023-04-21T18:10:11.017Z,61.5
2023-04-21T18:16:03.967Z,62.4
2023-04-21T18:21:56.831Z,62.9
2023-04-21T18:27:49.692Z,67
2023-04-21T18:33:40.673Z,66.1
2023-04-21T18:39:33.007Z,62.3
2023-04-21T18:45:25.248Z,70.5
2023-04-21T18:51:16.930Z,76.8
2023-04-21T18:57:08.884Z,79.4
2023-04-21T19:03:00.866Z,81.8
2023-04-21T19:08:54.357Z,83.1
2023-04-21T19:14:50.379Z,83.6
2023-04-21T19:20:42.580Z,82.9
2023-04-21T19:26:34.358Z,81
2023-04-21T19:32:25.597Z,83.2
2023-04-21T19:38:18.111Z,83.9
2023-04-21T19:44:13.617Z,85.4
2023-04-21T19:50:25.636Z,87
2023-04-21T19:56:19.048Z,88
2023-04-21T20:02:29.355Z,89.2
2023-04-21T20:08:21.535Z,88.7
2023-04-21T20:14:18.284Z,90.7
2023-04-21T20:20:13.464Z,90.6
2023-04-21T20:26:07.197Z,90.6
2023-04-21T20:31:59.691Z,89.5
2023-04-21T20:37:54.433Z,90.4
2023-04-21T20:43:53.106Z,90.3
2023-04-21T20:49:49.668Z,88.9
2023-04-21T21:09:12.926Z,88.8
2023-04-21T21:15:07.914Z,89.8
2023-04-21T21:21:13.585Z,90.4
2023-04-21T21:27:15.994Z,91.4
2023-04-21T21:33:07.580Z,93.2
2023-04-21T21:38:59.378Z,92.1
2023-04-21T21:44:51.246Z,92.4
2023-04-21T21:50:53.929Z,93
2023-04-21T21:56:48.764Z,92
2023-04-21T22:02:56.032Z,93.2
2023-04-21T22:08:48.497Z,92.5
2023-04-21T22:14:54.114Z,93.3
2023-04-21T22:20:48.768Z,93.6
2023-04-21T22:26:57.189Z,94.3
2023-04-21T22:32:59.404Z,93.3
2023-04-21T22:34:44.014Z,93.5
2023-04-21T22:40:36.371Z,93.8
2023-04-21T22:46:36.284Z,94.9
2023-04-21T22:53:00.364Z,94.4
2023-04-21T22:59:11.079Z,93.8
2023-04-21T23:05:19.902Z,95
2023-04-21T23:11:28.524Z,96.1
2023-04-21T23:17:48.349Z,95.7
2023-04-21T23:24:07.929Z,97.2
2023-04-21T23:30:40.363Z,96.7
2023-04-21T23:44:26.076Z,97
2023-04-21T23:50:42.047Z,98.1
2023-04-21T23:56:46.471Z,97.8
